Nacogdoches, TX (75964)

1:25 PM CST on February 09, 2016 (GMT -0600)
South Side | | Change Station
CLOSE
Current Station
Personal Weather Station
Location: Nacogdoches, TX
Elevation: 331 ft
Nearby Weather Stations

Elev 331 ft 31.59 °N, 94.66 °W | Updated 9 seconds ago

Clear
Clear
59.0 °F
Feels Like 59.0 °F
N
7.6
Wind Variable Wind from SW
Gusts 9.8 mph

Today
High -- | Low -- °F
--% Chance of Precip.
Yesterday
High -- | Low -- °F
Precip. -- in
Pressure 30.23 in
Visibility 10.0 miles
Clouds Few 8500 ft
Dew Point 17 °F
Humidity 19%
Rainfall 0.00 in
Snow Depth Not available.
7:06 AM 6:00 PM
New Moon, 2% visible
METAR KOCH 091915Z AUTO 33019G26KT 10SM FEW085 14/M06 A3023 RMK AO1
Pressure 30.23 in
Visibility 10.0 miles
Clouds Few 8500 ft
Dew Point 17 °F
Humidity 19%
Rainfall 0.00 in
Snow Depth Not available.
7:06 AM 6:00 PM
New Moon, 2% visible
METAR KOCH 091915Z AUTO 33019G26KT 10SM FEW085 14/M06 A3023 RMK AO1

10-Day Weather Forecast

Almanac

Astronomy

Feb. 09, 2016 Rise Set
Actual Time
Civil Twilight
Nautical Twilight
Astronomical Twilight
Moon
Length of Visible Light
Length of Day
Tomorrow will be .
, % of the Moon is Illuminated

Today's Extremes

State Highs State Lows

Community

WunderPhotos

Upload Photos

1,891,668 photos uploaded!

WunderBlog® & News

Nearby

Air Quality

  Air Quality AQ Index Pollutant
Not available.

Snow Depth

Station Depth Elevation

Earthquake Activity

City Distance Mag. Time & Date
Minimum magnitude displayed is 2.5.

Coastal Water Temperatures

Place Temperature

Stations

Nearby Weather Stations

Station Location Temp. Windchill Dew Point Humidity Wind Precip. Elev Updated Type
                   

Watches & Warnings

There are currently no watches in effect.